sensor_id;sensor_type;location;lat;lon;timestamp;pressure;altitude;pressure_sealevel;temperature;humidity
67099;BME280;54288;53.046;5.668;2023-01-27T00:00:31;102818.78;;;4.81;100.00
67099;BME280;54288;53.046;5.668;2023-01-27T00:02:57;102823.97;;;4.81;100.00
67099;BME280;54288;53.046;5.668;2023-01-27T00:05:22;102827.50;;;4.83;100.00
67099;BME280;54288;53.046;5.668;2023-01-27T00:07:48;102829.22;;;4.82;100.00
67099;BME280;54288;53.046;5.668;2023-01-27T00:10:17;102823.06;;;4.80;100.00
67099;BME280;54288;53.046;5.668;2023-01-27T00:12:44;102830.94;;;4.82;100.00
67099;BME280;54288;53.046;5.668;2023-01-27T00:15:31;102816.19;;;4.81;100.00
67099;BME280;54288;53.046;5.668;2023-01-27T00:17:57;102820.44;;;4.79;100.00
67099;BME280;54288;53.046;5.668;2023-01-27T00:20:23;102819.56;;;4.78;100.00
67099;BME280;54288;53.046;5.668;2023-01-27T00:23:13;102823.06;;;4.80;100.00
67099;BME280;54288;53.046;5.668;2023-01-27T00:25:58;102833.44;;;4.79;100.00
67099;BME280;54288;53.046;5.668;2023-01-27T00:28:26;102829.88;;;4.77;100.00
67099;BME280;54288;53.046;5.668;2023-01-27T00:30:56;102827.13;;;4.72;100.00
67099;BME280;54288;53.046;5.668;2023-01-27T00:33:21;102819.19;;;4.68;100.00
67099;BME280;54288;53.046;5.668;2023-01-27T00:35:59;102833.03;;;4.68;100.00
67099;BME280;54288;53.046;5.668;2023-01-27T00:38:26;102838.13;;;4.65;100.00
67099;BME280;54288;53.046;5.668;2023-01-27T00:40:52;102847.69;;;4.66;100.00
67099;BME280;54288;53.046;5.668;2023-01-27T00:43:36;102848.31;;;4.59;100.00
67099;BME280;54288;53.046;5.668;2023-01-27T00:46:01;102845.72;;;4.59;100.00
67099;BME280;54288;53.046;5.668;2023-01-27T00:48:27;102856.78;;;4.55;100.00
67099;BME280;54288;53.046;5.668;2023-01-27T00:50:53;102863.66;;;4.53;100.00
67099;BME280;54288;53.046;5.668;2023-01-27T00:53:18;102853.81;;;4.45;100.00
67099;BME280;54288;53.046;5.668;2023-01-27T00:55:44;102855.44;;;4.41;100.00
67099;BME280;54288;53.046;5.668;2023-01-27T00:58:11;102856.13;;;4.37;100.00
67099;BME280;54288;53.046;5.668;2023-01-27T01:00:37;102858.44;;;4.30;100.00
67099;BME280;54288;53.046;5.668;2023-01-27T01:03:03;102868.06;;;4.32;100.00
67099;BME280;54288;53.046;5.668;2023-01-27T01:05:29;102864.53;;;4.30;100.00
67099;BME280;54288;53.046;5.668;2023-01-27T01:07:54;102861.88;;;4.29;100.00
67099;BME280;54288;53.046;5.668;2023-01-27T01:10:20;102874.78;;;4.27;100.00
67099;BME280;54288;53.046;5.668;2023-01-27T01:12:45;102873.09;;;4.29;100.00
67099;BME280;54288;53.046;5.668;2023-01-27T01:15:11;102870.41;;;4.26;100.00
67099;BME280;54288;53.046;5.668;2023-01-27T01:17:37;102875.53;;;4.25;100.00
67099;BME280;54288;53.046;5.668;2023-01-27T01:20:03;102870.41;;;4.26;100.00
67099;BME280;54288;53.046;5.668;2023-01-27T01:22:28;102871.25;;;4.25;100.00
67099;BME280;54288;53.046;5.668;2023-01-27T01:24:54;102878.25;;;4.28;100.00
67099;BME280;54288;53.046;5.668;2023-01-27T01:27:19;102872.19;;;4.27;100.00
67099;BME280;54288;53.046;5.668;2023-01-27T01:29:45;102875.66;;;4.28;100.00
67099;BME280;54288;53.046;5.668;2023-01-27T01:32:11;102875.53;;;4.25;100.00
67099;BME280;54288;53.046;5.668;2023-01-27T01:34:36;102878.13;;;4.25;100.00
67099;BME280;54288;53.046;5.668;2023-01-27T01:37:03;102888.41;;;4.22;100.00
67099;BME280;54288;53.046;5.668;2023-01-27T01:39:30;102888.44;;;4.23;100.00
67099;BME280;54288;53.046;5.668;2023-01-27T01:41:56;102882.31;;;4.21;100.00
67099;BME280;54288;53.046;5.668;2023-01-27T01:44:28;102890.09;;;4.21;100.00
67099;BME280;54288;53.046;5.668;2023-01-27T01:46:55;102889.03;;;4.16;100.00
67099;BME280;54288;53.046;5.668;2023-01-27T01:49:30;102897.66;;;4.15;100.00
67099;BME280;54288;53.046;5.668;2023-01-27T01:52:02;102899.25;;;4.12;100.00
67099;BME280;54288;53.046;5.668;2023-01-27T01:54:39;102894.81;;;4.09;100.00
67099;BME280;54288;53.046;5.668;2023-01-27T01:57:20;102889.50;;;4.06;100.00
67099;BME280;54288;53.046;5.668;2023-01-27T01:59:57;102892.94;;;4.05;100.00
67099;BME280;54288;53.046;5.668;2023-01-27T02:02:24;102890.94;;;3.98;100.00
67099;BME280;54288;53.046;5.668;2023-01-27T02:04:59;102897.06;;;4.00;100.00
67099;BME280;54288;53.046;5.668;2023-01-27T02:10:16;102895.88;;;3.92;100.00
67099;BME280;54288;53.046;5.668;2023-01-27T02:12:41;102879.19;;;3.86;100.00
67099;BME280;54288;53.046;5.668;2023-01-27T02:15:09;102888.69;;;3.85;100.00
67099;BME280;54288;53.046;5.668;2023-01-27T02:17:35;102897.53;;;3.90;100.00
67099;BME280;54288;53.046;5.668;2023-01-27T02:22:57;102899.53;;;3.97;100.00
67099;BME280;54288;53.046;5.668;2023-01-27T02:27:59;102899.31;;;3.91;100.00
67099;BME280;54288;53.046;5.668;2023-01-27T02:30:25;102895.75;;;3.89;100.00
67099;BME280;54288;53.046;5.668;2023-01-27T02:32:51;102904.59;;;3.94;100.00
67099;BME280;54288;53.046;5.668;2023-01-27T02:35:41;102902.81;;;3.93;100.00
67099;BME280;54288;53.046;5.668;2023-01-27T02:38:12;102913.19;;;3.93;100.00
67099;BME280;54288;53.046;5.668;2023-01-27T02:40:39;102894.13;;;3.91;100.00
67099;BME280;54288;53.046;5.668;2023-01-27T02:43:05;102896.72;;;3.91;100.00
67099;BME280;54288;53.046;5.668;2023-01-27T02:45:31;102898.34;;;3.89;100.00
67099;BME280;54288;53.046;5.668;2023-01-27T02:47:58;102906.13;;;3.89;100.00
67099;BME280;54288;53.046;5.668;2023-01-27T02:50:24;102902.59;;;3.87;100.00
67099;BME280;54288;53.046;5.668;2023-01-27T02:52:50;102899.75;;;3.81;100.00
67099;BME280;54288;53.046;5.668;2023-01-27T02:55:16;102906.41;;;3.75;100.00
67099;BME280;54288;53.046;5.668;2023-01-27T02:57:42;102903.56;;;3.69;100.00
67099;BME280;54288;53.046;5.668;2023-01-27T03:00:36;102902.47;;;3.62;100.00
67099;BME280;54288;53.046;5.668;2023-01-27T03:03:02;102892.72;;;3.57;100.00
67099;BME280;54288;53.046;5.668;2023-01-27T03:05:27;102907.50;;;3.59;100.00
67099;BME280;54288;53.046;5.668;2023-01-27T03:07:53;102901.38;;;3.57;100.00
67099;BME280;54288;53.046;5.668;2023-01-27T03:10:19;102908.41;;;3.60;100.00
67099;BME280;54288;53.046;5.668;2023-01-27T03:12:44;102908.41;;;3.60;100.00
67099;BME280;54288;53.046;5.668;2023-01-27T03:15:11;102906.56;;;3.57;100.00
67099;BME280;54288;53.046;5.668;2023-01-27T03:18:05;102926.47;;;3.58;100.00
67099;BME280;54288;53.046;5.668;2023-01-27T03:20:44;102927.91;;;3.52;100.00
67099;BME280;54288;53.046;5.668;2023-01-27T03:23:12;102925.19;;;3.49;100.00
67099;BME280;54288;53.046;5.668;2023-01-27T03:25:40;102924.56;;;3.54;100.00
67099;BME280;54288;53.046;5.668;2023-01-27T03:28:07;102925.28;;;3.50;100.00
67099;BME280;54288;53.046;5.668;2023-01-27T03:31:05;102923.72;;;3.55;100.00
67099;BME280;54288;53.046;5.668;2023-01-27T03:33:40;102934.97;;;3.56;100.00
67099;BME280;54288;53.046;5.668;2023-01-27T03:36:29;102941.84;;;3.55;100.00
67099;BME280;54288;53.046;5.668;2023-01-27T03:39:14;102940.91;;;3.53;100.00
67099;BME280;54288;53.046;5.668;2023-01-27T03:41:58;102953.44;;;3.63;100.00
67099;BME280;54288;53.046;5.668;2023-01-27T03:44:43;102954.44;;;3.67;100.00
67099;BME280;54288;53.046;5.668;2023-01-27T03:47:27;102952.94;;;3.72;100.00
67099;BME280;54288;53.046;5.668;2023-01-27T03:49:53;102951.19;;;3.72;100.00
67099;BME280;54288;53.046;5.668;2023-01-27T03:52:19;102960.94;;;3.78;100.00
67099;BME280;54288;53.046;5.668;2023-01-27T03:54:44;102961.84;;;3.78;100.00
67099;BME280;54288;53.046;5.668;2023-01-27T03:57:10;102959.13;;;3.75;100.00
67099;BME280;54288;53.046;5.668;2023-01-27T03:59:35;102974.72;;;3.77;100.00
67099;BME280;54288;53.046;5.668;2023-01-27T04:02:01;102971.38;;;3.79;100.00
67099;BME280;54288;53.046;5.668;2023-01-27T04:04:45;102978.44;;;3.83;100.00
67099;BME280;54288;53.046;5.668;2023-01-27T04:07:34;102958.47;;;3.81;100.00
67099;BME280;54288;53.046;5.668;2023-01-27T04:10:00;102971.69;;;3.87;100.00
67099;BME280;54288;53.046;5.668;2023-01-27T04:12:26;102975.84;;;3.83;100.00
67099;BME280;54288;53.046;5.668;2023-01-27T04:14:52;102975.06;;;3.84;100.00
67099;BME280;54288;53.046;5.668;2023-01-27T04:17:18;102978.31;;;3.80;100.00
67099;BME280;54288;53.046;5.668;2023-01-27T04:19:45;102977.19;;;3.74;100.00
67099;BME280;54288;53.046;5.668;2023-01-27T04:22:13;102988.19;;;3.68;100.00
67099;BME280;54288;53.046;5.668;2023-01-27T04:24:43;102975.00;;;3.62;100.00
67099;BME280;54288;53.046;5.668;2023-01-27T04:27:11;102977.63;;;3.64;100.00
67099;BME280;54288;53.046;5.668;2023-01-27T04:29:39;102973.91;;;3.57;100.00
67099;BME280;54288;53.046;5.668;2023-01-27T04:32:08;102981.44;;;3.51;100.00
67099;BME280;54288;53.046;5.668;2023-01-27T04:34:34;102974.34;;;3.47;100.00
67099;BME280;54288;53.046;5.668;2023-01-27T04:37:00;102975.91;;;3.44;100.00
67099;BME280;54288;53.046;5.668;2023-01-27T04:39:28;102974.75;;;3.37;100.00
67099;BME280;54288;53.046;5.668;2023-01-27T04:41:57;102973.75;;;3.34;100.00
67099;BME280;54288;53.046;5.668;2023-01-27T04:44:23;102972.88;;;3.33;100.00
67099;BME280;54288;53.046;5.668;2023-01-27T04:46:49;102976.16;;;3.29;100.00
67099;BME280;54288;53.046;5.668;2023-01-27T04:49:15;102976.00;;;3.26;100.00
67099;BME280;54288;53.046;5.668;2023-01-27T04:51:41;102975.91;;;3.23;100.00
67099;BME280;54288;53.046;5.668;2023-01-27T04:54:08;102977.47;;;3.20;100.00
67099;BME280;54288;53.046;5.668;2023-01-27T04:56:37;102986.81;;;3.16;100.00
67099;BME280;54288;53.046;5.668;2023-01-27T04:59:09;102976.38;;;3.15;100.00
67099;BME280;54288;53.046;5.668;2023-01-27T05:01:35;102983.97;;;3.10;100.00
67099;BME280;54288;53.046;5.668;2023-01-27T05:04:01;102983.69;;;3.04;100.00
67099;BME280;54288;53.046;5.668;2023-01-27T05:06:27;102988.09;;;3.07;100.00
67099;BME280;54288;53.046;5.668;2023-01-27T05:08:53;102983.81;;;3.07;100.00
67099;BME280;54288;53.046;5.668;2023-01-27T05:11:18;102974.88;;;3.01;100.00
67099;BME280;54288;53.046;5.668;2023-01-27T05:13:45;102979.19;;;3.00;100.00
67099;BME280;54288;53.046;5.668;2023-01-27T05:16:16;102987.91;;;3.02;100.00
67099;BME280;54288;53.046;5.668;2023-01-27T05:18:45;102993.06;;;3.02;100.00
67099;BME280;54288;53.046;5.668;2023-01-27T05:21:15;102987.69;;;2.98;100.00
67099;BME280;54288;53.046;5.668;2023-01-27T05:23:42;102984.22;;;2.97;100.00
67099;BME280;54288;53.046;5.668;2023-01-27T05:26:33;102990.69;;;2.88;100.00
67099;BME280;54288;53.046;5.668;2023-01-27T05:28:59;102987.63;;;2.77;100.00
67099;BME280;54288;53.046;5.668;2023-01-27T05:31:29;102988.97;;;2.69;100.00
67099;BME280;54288;53.046;5.668;2023-01-27T05:33:59;102993.59;;;2.57;100.00
67099;BME280;54288;53.046;5.668;2023-01-27T05:36:26;102994.22;;;2.52;100.00
67099;BME280;54288;53.046;5.668;2023-01-27T05:38:54;102995.81;;;2.50;100.00
67099;BME280;54288;53.046;5.668;2023-01-27T05:41:20;102998.66;;;2.54;100.00
67099;BME280;54288;53.046;5.668;2023-01-27T05:43:51;102998.66;;;2.54;100.00
67099;BME280;54288;53.046;5.668;2023-01-27T05:46:19;103006.41;;;2.54;100.00
67099;BME280;54288;53.046;5.668;2023-01-27T05:48:48;103000.13;;;2.49;100.00
67099;BME280;54288;53.046;5.668;2023-01-27T05:51:16;103000.44;;;2.38;100.00
67099;BME280;54288;53.046;5.668;2023-01-27T05:53:43;103007.06;;;2.33;100.00
67099;BME280;54288;53.046;5.668;2023-01-27T05:56:12;102997.50;;;2.30;100.00
67099;BME280;54288;53.046;5.668;2023-01-27T05:58:38;102995.59;;;2.26;100.00
67099;BME280;54288;53.046;5.668;2023-01-27T06:01:16;103003.13;;;2.22;100.00
67099;BME280;54288;53.046;5.668;2023-01-27T06:03:43;102997.88;;;2.20;100.00
67099;BME280;54288;53.046;5.668;2023-01-27T06:06:11;103009.03;;;2.19;100.00
67099;BME280;54288;53.046;5.668;2023-01-27T06:08:38;103010.06;;;2.23;100.00
67099;BME280;54288;53.046;5.668;2023-01-27T06:11:05;103000.00;;;2.29;100.00
67099;BME280;54288;53.046;5.668;2023-01-27T06:13:31;102990.78;;;2.34;100.00
67099;BME280;54288;53.046;5.668;2023-01-27T06:16:02;102992.09;;;2.43;100.00
67099;BME280;54288;53.046;5.668;2023-01-27T06:18:28;102986.31;;;2.49;100.00
67099;BME280;54288;53.046;5.668;2023-01-27T06:20:59;102984.63;;;2.49;100.00
67099;BME280;54288;53.046;5.668;2023-01-27T06:23:25;102987.19;;;2.49;100.00
67099;BME280;54288;53.046;5.668;2023-01-27T06:25:52;102996.25;;;2.59;100.00
67099;BME280;54288;53.046;5.668;2023-01-27T06:28:18;103001.59;;;2.62;100.00
67099;BME280;54288;53.046;5.668;2023-01-27T06:30:44;103002.59;;;2.65;100.00
67099;BME280;54288;53.046;5.668;2023-01-27T06:33:10;103003.75;;;2.72;100.00
67099;BME280;54288;53.046;5.668;2023-01-27T06:35:38;103023.84;;;2.77;100.00
67099;BME280;54288;53.046;5.668;2023-01-27T06:38:07;103016.22;;;2.80;100.00
67099;BME280;54288;53.046;5.668;2023-01-27T06:40:34;103020.56;;;2.81;100.00
67099;BME280;54288;53.046;5.668;2023-01-27T06:43:00;103015.28;;;2.78;100.00
67099;BME280;54288;53.046;5.668;2023-01-27T06:45:27;103035.50;;;2.87;100.00
67099;BME280;54288;53.046;5.668;2023-01-27T06:48:01;103035.44;;;2.85;100.00
67099;BME280;54288;53.046;5.668;2023-01-27T06:50:28;103029.22;;;2.82;100.00
67099;BME280;54288;53.046;5.668;2023-01-27T06:53:03;103039.66;;;2.83;100.00
67099;BME280;54288;53.046;5.668;2023-01-27T06:55:30;103041.69;;;2.90;100.00
67099;BME280;54288;53.046;5.668;2023-01-27T06:57:56;103041.78;;;2.92;100.00
67099;BME280;54288;53.046;5.668;2023-01-27T07:00:22;103040.88;;;2.91;100.00
67099;BME280;54288;53.046;5.668;2023-01-27T07:02:48;103044.56;;;2.96;100.00
67099;BME280;54288;53.046;5.668;2023-01-27T07:05:14;103043.88;;;3.00;100.00
67099;BME280;54288;53.046;5.668;2023-01-27T07:07:40;103044.16;;;3.06;100.00
67099;BME280;54288;53.046;5.668;2023-01-27T07:10:07;103046.00;;;3.09;100.00
67099;BME280;54288;53.046;5.668;2023-01-27T07:12:33;103055.69;;;3.13;98.35
67099;BME280;54288;53.046;5.668;2023-01-27T07:15:07;103051.25;;;3.10;97.98
67099;BME280;54288;53.046;5.668;2023-01-27T07:17:34;103055.06;;;3.18;96.75
67099;BME280;54288;53.046;5.668;2023-01-27T07:19:59;103050.31;;;3.27;96.27
67099;BME280;54288;53.046;5.668;2023-01-27T07:22:25;103058.75;;;3.23;97.48
67099;BME280;54288;53.046;5.668;2023-01-27T07:24:51;103054.16;;;3.18;98.64
67099;BME280;54288;53.046;5.668;2023-01-27T07:27:16;103057.78;;;3.21;98.11
67099;BME280;54288;53.046;5.668;2023-01-27T07:29:42;103069.09;;;3.23;96.61
67099;BME280;54288;53.046;5.668;2023-01-27T07:32:08;103063.03;;;3.23;96.74
67099;BME280;54288;53.046;5.668;2023-01-27T07:34:34;103063.03;;;3.23;96.69
67099;BME280;54288;53.046;5.668;2023-01-27T07:36:59;103076.94;;;3.25;97.28
67099;BME280;54288;53.046;5.668;2023-01-27T07:39:25;103072.44;;;3.21;98.18
67099;BME280;54288;53.046;5.668;2023-01-27T07:41:52;103076.13;;;3.26;96.93
67099;BME280;54288;53.046;5.668;2023-01-27T07:44:20;103085.50;;;3.24;97.63
67099;BME280;54288;53.046;5.668;2023-01-27T07:46:46;103087.22;;;3.23;97.98
67099;BME280;54288;53.046;5.668;2023-01-27T07:49:11;103092.41;;;3.23;98.27
67099;BME280;54288;53.046;5.668;2023-01-27T07:51:37;103078.78;;;3.27;96.94
67099;BME280;54288;53.046;5.668;2023-01-27T07:54:04;103098.03;;;3.34;95.71
67099;BME280;54288;53.046;5.668;2023-01-27T07:56:30;103089.44;;;3.35;96.35
67099;BME280;54288;53.046;5.668;2023-01-27T07:58:57;103084.97;;;3.31;96.49
67099;BME280;54288;53.046;5.668;2023-01-27T08:01:23;103092.03;;;3.35;96.88
67099;BME280;54288;53.046;5.668;2023-01-27T08:03:49;103091.28;;;3.37;96.67
67099;BME280;54288;53.046;5.668;2023-01-27T08:06:15;103098.19;;;3.37;96.06
67099;BME280;54288;53.046;5.668;2023-01-27T08:08:41;103093.75;;;3.34;97.09
67099;BME280;54288;53.046;5.668;2023-01-27T08:11:08;103111.34;;;3.41;95.87
67099;BME280;54288;53.046;5.668;2023-01-27T08:13:36;103101.66;;;3.37;96.56
67099;BME280;54288;53.046;5.668;2023-01-27T08:16:04;103099.22;;;3.40;97.21
67099;BME280;54288;53.046;5.668;2023-01-27T08:18:31;103102.75;;;3.42;97.33
67099;BME280;54288;53.046;5.668;2023-01-27T08:21:02;103108.94;;;3.46;96.02
67099;BME280;54288;53.046;5.668;2023-01-27T08:23:28;103096.97;;;3.48;96.21
67099;BME280;54288;53.046;5.668;2023-01-27T08:25:56;103097.91;;;3.50;96.11
67099;BME280;54288;53.046;5.668;2023-01-27T08:28:24;103098.91;;;3.53;96.15
67099;BME280;54288;53.046;5.668;2023-01-27T08:30:50;103105.03;;;3.55;95.77
67099;BME280;54288;53.046;5.668;2023-01-27T08:33:21;103107.78;;;3.58;94.39
67099;BME280;54288;53.046;5.668;2023-01-27T08:35:49;103106.13;;;3.60;95.27
67099;BME280;54288;53.046;5.668;2023-01-27T08:38:17;103115.69;;;3.61;95.53
67099;BME280;54288;53.046;5.668;2023-01-27T08:40:45;103115.75;;;3.63;95.13
67099;BME280;54288;53.046;5.668;2023-01-27T08:43:12;103110.44;;;3.60;96.48
67099;BME280;54288;53.046;5.668;2023-01-27T08:45:40;103109.72;;;3.64;95.85
67099;BME280;54288;53.046;5.668;2023-01-27T08:48:05;103114.38;;;3.71;96.39
67099;BME280;54288;53.046;5.668;2023-01-27T08:50:32;103113.63;;;3.73;96.47
67099;BME280;54288;53.046;5.668;2023-01-27T08:52:57;103104.22;;;3.75;95.67
67099;BME280;54288;53.046;5.668;2023-01-27T08:55:31;103108.66;;;3.78;96.46
67099;BME280;54288;53.046;5.668;2023-01-27T08:57:57;103108.91;;;3.84;96.13
67099;BME280;54288;53.046;5.668;2023-01-27T09:00:23;103111.56;;;3.85;96.24
67099;BME280;54288;53.046;5.668;2023-01-27T09:02:49;103107.31;;;3.87;96.64
67099;BME280;54288;53.046;5.668;2023-01-27T09:05:16;103113.34;;;3.86;95.97
67099;BME280;54288;53.046;5.668;2023-01-27T09:07:44;103119.47;;;3.88;96.41
67099;BME280;54288;53.046;5.668;2023-01-27T09:10:10;103121.50;;;3.95;95.78
67099;BME280;54288;53.046;5.668;2023-01-27T09:12:36;103119.72;;;3.94;96.09
67099;BME280;54288;53.046;5.668;2023-01-27T09:15:01;103135.25;;;3.94;96.63
67099;BME280;54288;53.046;5.668;2023-01-27T09:17:27;103124.22;;;3.98;94.54
67099;BME280;54288;53.046;5.668;2023-01-27T09:19:53;103125.22;;;4.02;94.22
67099;BME280;54288;53.046;5.668;2023-01-27T09:22:18;103129.59;;;4.03;94.28
67099;BME280;54288;53.046;5.668;2023-01-27T09:24:44;103136.75;;;4.08;94.58
67099;BME280;54288;53.046;5.668;2023-01-27T09:27:10;103135.03;;;4.09;93.88
67099;BME280;54288;53.046;5.668;2023-01-27T09:29:35;103137.84;;;4.13;93.27
67099;BME280;54288;53.046;5.668;2023-01-27T09:32:02;103139.66;;;4.16;93.08
67099;BME280;54288;53.046;5.668;2023-01-27T09:34:28;103133.72;;;4.18;91.97
67099;BME280;54288;53.046;5.668;2023-01-27T09:37:00;103125.88;;;4.17;92.47
67099;BME280;54288;53.046;5.668;2023-01-27T09:39:28;103122.38;;;4.16;91.69
67099;BME280;54288;53.046;5.668;2023-01-27T09:51:12;103127.91;;;4.24;93.01
67099;BME280;54288;53.046;5.668;2023-01-27T09:54:19;103131.41;;;4.24;92.62
67099;BME280;54288;53.046;5.668;2023-01-27T10:00:15;103133.22;;;4.27;94.60
67099;BME280;54288;53.046;5.668;2023-01-27T10:28:31;103142.81;;;4.29;100.00
67099;BME280;54288;53.046;5.668;2023-01-27T10:31:00;103135.34;;;4.37;100.00
67099;BME280;54288;53.046;5.668;2023-01-27T10:42:08;103134.91;;;4.47;98.72
67099;BME280;54288;53.046;5.668;2023-01-27T10:45:15;103137.56;;;4.48;97.49
67099;BME280;54288;53.046;5.668;2023-01-27T10:48:03;103135.34;;;4.57;98.40
67099;BME280;54288;53.046;5.668;2023-01-27T10:50:40;103133.88;;;4.64;99.38
67099;BME280;54288;53.046;5.668;2023-01-27T10:53:11;103140.38;;;4.75;97.63
67099;BME280;54288;53.046;5.668;2023-01-27T10:56:00;103132.13;;;4.85;97.24
67099;BME280;54288;53.046;5.668;2023-01-27T11:01:09;103136.06;;;4.97;97.69
67099;BME280;54288;53.046;5.668;2023-01-27T11:03:48;103135.66;;;4.87;98.17
67099;BME280;54288;53.046;5.668;2023-01-27T11:06:23;103129.78;;;4.91;99.00
67099;BME280;54288;53.046;5.668;2023-01-27T11:09:16;103120.84;;;4.84;99.15
67099;BME280;54288;53.046;5.668;2023-01-27T11:11:48;103127.94;;;4.88;100.00
67099;BME280;54288;53.046;5.668;2023-01-27T11:16:45;103116.50;;;5.05;99.81
67099;BME280;54288;53.046;5.668;2023-01-27T11:21:54;103123.16;;;4.99;100.00
67099;BME280;54288;53.046;5.668;2023-01-27T11:24:31;103114.00;;;5.08;100.00
67099;BME280;54288;53.046;5.668;2023-01-27T11:27:12;103117.56;;;5.10;99.81
67099;BME280;54288;53.046;5.668;2023-01-27T11:29:52;103112.38;;;5.10;100.00
67099;BME280;54288;53.046;5.668;2023-01-27T11:32:49;103113.75;;;5.24;100.00
67099;BME280;54288;53.046;5.668;2023-01-27T11:35:17;103107.78;;;5.27;99.62
67099;BME280;54288;53.046;5.668;2023-01-27T11:37:46;103112.44;;;5.35;99.63
67099;BME280;54288;53.046;5.668;2023-01-27T11:40:35;103108.22;;;5.39;99.21
67099;BME280;54288;53.046;5.668;2023-01-27T11:43:02;103108.72;;;5.52;98.00
67099;BME280;54288;53.046;5.668;2023-01-27T11:45:33;103122.63;;;5.53;97.58
67099;BME280;54288;53.046;5.668;2023-01-27T11:48:03;103113.00;;;5.50;95.82
67099;BME280;54288;53.046;5.668;2023-01-27T11:50:34;103113.63;;;5.43;93.59
67099;BME280;54288;53.046;5.668;2023-01-27T11:53:13;103110.91;;;5.40;92.99
67099;BME280;54288;53.046;5.668;2023-01-27T11:55:46;103104.53;;;5.32;92.67
67099;BME280;54288;53.046;5.668;2023-01-27T11:58:21;103114.19;;;5.36;93.41
67099;BME280;54288;53.046;5.668;2023-01-27T12:01:12;103116.63;;;5.32;93.38
67099;BME280;54288;53.046;5.668;2023-01-27T12:04:12;103111.16;;;5.24;91.50
67099;BME280;54288;53.046;5.668;2023-01-27T12:07:18;103109.25;;;5.20;92.05
67099;BME280;54288;53.046;5.668;2023-01-27T12:09:38;103104.75;;;5.15;91.00
67099;BME280;54288;53.046;5.668;2023-01-27T12:12:25;103102.84;;;5.11;90.05
67099;BME280;54288;53.046;5.668;2023-01-27T12:14:59;103105.78;;;5.20;89.13
67099;BME280;54288;53.046;5.668;2023-01-27T12:19:54;103099.84;;;5.22;89.29
67099;BME280;54288;53.046;5.668;2023-01-27T12:22:29;103098.22;;;5.26;88.58
67099;BME280;54288;53.046;5.668;2023-01-27T12:25:04;103102.13;;;5.15;86.31
67099;BME280;54288;53.046;5.668;2023-01-27T12:27:38;103096.84;;;5.12;85.16
67099;BME280;54288;53.046;5.668;2023-01-27T12:30:17;103097.72;;;5.12;87.19
67099;BME280;54288;53.046;5.668;2023-01-27T12:32:46;103102.13;;;5.15;87.49
67099;BME280;54288;53.046;5.668;2023-01-27T12:35:28;103094.06;;;5.07;87.90
67099;BME280;54288;53.046;5.668;2023-01-27T12:38:34;103100.78;;;5.02;88.14
67099;BME280;54288;53.046;5.668;2023-01-27T12:41:01;103097.50;;;5.06;88.25
67099;BME280;54288;53.046;5.668;2023-01-27T12:43:28;103088.47;;;4.97;88.53
67099;BME280;54288;53.046;5.668;2023-01-27T12:48:49;103088.53;;;4.98;90.10
67099;BME280;54288;53.046;5.668;2023-01-27T12:51:22;103080.00;;;5.02;89.98
67099;BME280;54288;53.046;5.668;2023-01-27T12:56:47;103081.53;;;4.97;88.88
67099;BME280;54288;53.046;5.668;2023-01-27T12:59:16;103091.66;;;4.90;89.75
67099;BME280;54288;53.046;5.668;2023-01-27T13:02:29;103088.06;;;4.86;89.58
67099;BME280;54288;53.046;5.668;2023-01-27T13:04:58;103079.25;;;4.83;89.93
67099;BME280;54288;53.046;5.668;2023-01-27T13:07:30;103089.59;;;4.81;91.02
67099;BME280;54288;53.046;5.668;2023-01-27T13:10:02;103089.59;;;4.81;91.15
67099;BME280;54288;53.046;5.668;2023-01-27T13:12:31;103086.03;;;4.79;91.40
67099;BME280;54288;53.046;5.668;2023-01-27T13:28:46;103090.91;;;4.70;96.30
67099;BME280;54288;53.046;5.668;2023-01-27T13:47:58;103103.72;;;4.45;97.90
67099;BME280;54288;53.046;5.668;2023-01-27T13:51:09;103097.53;;;4.42;96.54
67099;BME280;54288;53.046;5.668;2023-01-27T13:53:17;103101.84;;;4.41;96.11
67099;BME280;54288;53.046;5.668;2023-01-27T14:04:04;103094.16;;;4.44;98.09
67099;BME280;54288;53.046;5.668;2023-01-27T14:20:35;103093.72;;;4.54;94.79
67099;BME280;54288;53.046;5.668;2023-01-27T14:31:17;103091.31;;;4.38;92.47
67099;BME280;54288;53.046;5.668;2023-01-27T14:36:54;103083.16;;;4.29;93.46
67099;BME280;54288;53.046;5.668;2023-01-27T14:42:06;103087.66;;;4.33;94.76
67099;BME280;54288;53.046;5.668;2023-01-27T14:44:57;103100.53;;;4.30;96.25
67099;BME280;54288;53.046;5.668;2023-01-27T14:47:51;103096.13;;;4.29;96.87
67099;BME280;54288;53.046;5.668;2023-01-27T14:50:30;103099.56;;;4.28;97.88
67099;BME280;54288;53.046;5.668;2023-01-27T14:53:02;103102.97;;;4.27;98.28
67099;BME280;54288;53.046;5.668;2023-01-27T14:55:47;103098.44;;;4.22;97.92
67099;BME280;54288;53.046;5.668;2023-01-27T14:58:33;103100.31;;;4.26;97.98
67099;BME280;54288;53.046;5.668;2023-01-27T15:04:10;103101.06;;;4.23;97.79
67099;BME280;54288;53.046;5.668;2023-01-27T15:17:25;103118.47;;;4.05;99.66
67099;BME280;54288;53.046;5.668;2023-01-27T15:22:46;103118.59;;;4.08;99.82
67099;BME280;54288;53.046;5.668;2023-01-27T15:25:28;103123.59;;;4.04;99.57
67099;BME280;54288;53.046;5.668;2023-01-27T15:27:59;103120.03;;;4.02;99.00
67099;BME280;54288;53.046;5.668;2023-01-27T15:30:29;103123.38;;;3.99;98.57
67099;BME280;54288;53.046;5.668;2023-01-27T15:32:56;103130.91;;;3.93;99.48
67099;BME280;54288;53.046;5.668;2023-01-27T15:35:30;103127.50;;;3.94;99.16
67099;BME280;54288;53.046;5.668;2023-01-27T15:41:00;103127.63;;;3.97;97.68
67099;BME280;54288;53.046;5.668;2023-01-27T15:43:30;103125.72;;;3.93;98.35
67099;BME280;54288;53.046;5.668;2023-01-27T15:46:16;103122.88;;;3.87;97.89
67099;BME280;54288;53.046;5.668;2023-01-27T15:48:44;103131.47;;;3.86;98.02
67099;BME280;54288;53.046;5.668;2023-01-27T15:51:17;103132.38;;;3.87;98.83